Time;durP1;ratioP1;P1;durP2;ratioP2;P2;SDS_P1;SDS_P2;PMS_P1;PMS_P2;Temp;Humidity;BMP_temperature;BMP_pressure;BME280_temperature;BME280_humidity;BME280_pressure;Samples;Min_cycle;Max_cycle;Signal;HPM_P1;HPM_P2
2022/05/20 00:00:08;;;;;;;4.63;2.55;;;;;;;;;;4973088;28;20035;-64
2022/05/20 00:02:36;;;;;;;4.45;2.72;;;;;;;;;;4972914;28;20118;-64
2022/05/20 00:05:04;;;;;;;4.75;3.15;;;;;;;;;;4973032;28;20065;-64
2022/05/20 00:07:32;;;;;;;4.63;3.50;;;;;;;;;;4972713;28;20042;-64
2022/05/20 00:10:00;;;;;;;4.70;3.30;;;;;;;;;;4972596;28;20066;-64
2022/05/20 00:12:27;;;;;;;5.47;3.00;;;;;;;;;;4972717;28;20506;-59
2022/05/20 00:14:55;;;;;;;5.65;3.72;;;;;;;;;;4972727;28;20039;-58
2022/05/20 00:17:23;;;;;;;4.43;3.00;;;;;;;;;;4972661;28;20058;-55
2022/05/20 00:19:50;;;;;;;5.38;3.05;;;;;;;;;;4972495;28;20426;-57
2022/05/20 00:22:18;;;;;;;5.38;3.70;;;;;;;;;;4972396;28;20557;-59
2022/05/20 00:27:36;;;;;;;4.15;2.72;;;;;;;;;;4964372;28;20058;-55
2022/05/20 00:30:04;;;;;;;4.85;3.50;;;;;;;;;;4992219;28;20042;-62
2022/05/20 00:32:32;;;;;;;7.07;4.68;;;;;;;;;;4991993;28;20038;-62
2022/05/20 00:35:00;;;;;;;5.72;3.75;;;;;;;;;;4991784;28;20113;-55
2022/05/20 00:37:28;;;;;;;5.90;4.03;;;;;;;;;;4991875;28;20043;-52
2022/05/20 00:39:55;;;;;;;6.07;3.28;;;;;;;;;;4991664;28;20042;-50
2022/05/20 00:42:23;;;;;;;5.20;3.28;;;;;;;;;;4991886;28;20042;-52
2022/05/20 00:44:50;;;;;;;5.07;2.85;;;;;;;;;;4991651;28;20126;-57
2022/05/20 00:47:18;;;;;;;4.35;3.10;;;;;;;;;;4991828;28;20081;-59
2022/05/20 00:49:50;;;;;;;6.50;3.42;;;;;;;;;;4991662;28;20039;-51
2022/05/20 00:52:25;;;;;;;5.60;3.75;;;;;;;;;;4991667;28;20038;-58
2022/05/20 00:54:57;;;;;;;5.80;3.63;;;;;;;;;;4991698;28;20436;-51
2022/05/20 00:57:35;;;;;;;5.18;3.50;;;;;;;;;;4991550;28;20531;-51
2022/05/20 01:00:09;;;;;;;6.30;3.63;;;;;;;;;;4991545;28;20062;-55
2022/05/20 01:02:38;;;;;;;8.82;4.28;;;;;;;;;;4991928;28;20049;-56
2022/05/20 01:05:14;;;;;;;6.57;4.05;;;;;;;;;;4993441;28;20049;-54
2022/05/20 01:07:43;;;;;;;5.78;3.70;;;;;;;;;;4978281;28;20049;-49
2022/05/20 01:10:10;;;;;;;6.20;4.05;;;;;;;;;;4995434;28;20057;-51
2022/05/20 01:12:38;;;;;;;6.30;3.50;;;;;;;;;;4994003;28;20043;-57
2022/05/20 01:15:06;;;;;;;5.95;4.05;;;;;;;;;;4995444;28;20048;-52
2022/05/20 01:17:33;;;;;;;4.65;3.03;;;;;;;;;;4995449;28;20034;-53
2022/05/20 01:20:05;;;;;;;4.93;3.47;;;;;;;;;;4994984;28;20121;-49
2022/05/20 01:22:47;;;;;;;5.00;3.42;;;;;;;;;;4995201;28;20042;-52
2022/05/20 01:25:16;;;;;;;6.53;4.47;;;;;;;;;;4977708;28;20046;-63
2022/05/20 01:27:43;;;;;;;5.13;3.67;;;;;;;;;;4992910;28;20398;-54
2022/05/20 01:30:14;;;;;;;5.55;3.75;;;;;;;;;;4976209;28;20042;-63
2022/05/20 01:32:42;;;;;;;5.10;3.55;;;;;;;;;;4975529;28;20043;-66
2022/05/20 01:35:19;;;;;;;6.43;3.92;;;;;;;;;;4975352;28;20454;-64
2022/05/20 01:37:46;;;;;;;5.75;3.38;;;;;;;;;;4975185;28;20049;-65
2022/05/20 01:40:14;;;;;;;5.45;3.90;;;;;;;;;;4975274;28;20520;-63
2022/05/20 01:42:56;;;;;;;6.50;3.67;;;;;;;;;;4975230;28;20089;-59
2022/05/20 01:45:33;;;;;;;4.97;3.17;;;;;;;;;;4975404;28;20039;-65
2022/05/20 01:48:25;;;;;;;4.35;2.85;;;;;;;;;;4974963;28;20050;-62
2022/05/20 01:50:55;;;;;;;6.10;4.25;;;;;;;;;;4975047;28;20406;-64
2022/05/20 01:53:31;;;;;;;5.88;4.07;;;;;;;;;;4975248;28;20402;-60
2022/05/20 01:56:14;;;;;;;4.88;3.28;;;;;;;;;;4975562;28;20121;-63
2022/05/20 01:58:51;;;;;;;7.10;4.05;;;;;;;;;;4975146;28;20070;-63
2022/05/20 02:01:31;;;;;;;4.97;3.83;;;;;;;;;;4974977;28;20081;-58
2022/05/20 02:04:06;;;;;;;5.05;3.47;;;;;;;;;;4974870;28;20486;-55
2022/05/20 02:06:40;;;;;;;5.20;3.08;;;;;;;;;;4975154;28;20379;-51
2022/05/20 02:09:25;;;;;;;7.38;3.40;;;;;;;;;;4975207;28;20045;-51
2022/05/20 02:11:55;;;;;;;5.55;3.83;;;;;;;;;;4974937;28;20438;-48
2022/05/20 02:14:29;;;;;;;6.60;4.30;;;;;;;;;;4974577;28;20565;-48
2022/05/20 02:17:03;;;;;;;;;;;;;;;;;;4974633;28;20042;-48
2022/05/20 02:19:44;;;;;;;4.32;3.20;;;;;;;;;;4974597;28;19930;-48
2022/05/20 02:22:17;;;;;;;5.50;3.60;;;;;;;;;;4974592;28;20043;-58
2022/05/20 02:24:46;;;;;;;4.75;3.17;;;;;;;;;;4974600;28;20113;-56
2022/05/20 02:27:27;;;;;;;4.65;3.17;;;;;;;;;;4974560;28;20113;-54
2022/05/20 02:30:03;;;;;;;6.30;4.35;;;;;;;;;;4955132;28;20122;-57
2022/05/20 02:32:37;;;;;;;5.90;4.13;;;;;;;;;;4966896;28;20493;-51
2022/05/20 02:35:05;;;;;;;8.73;5.32;;;;;;;;;;4957584;28;20377;-52
2022/05/20 02:37:36;;;;;;;6.70;4.30;;;;;;;;;;4974162;28;20050;-53
2022/05/20 02:40:07;;;;;;;6.78;4.55;;;;;;;;;;4957014;28;20043;-50
2022/05/20 02:42:34;;;;;;;9.15;4.10;;;;;;;;;;4974396;28;20449;-55
2022/05/20 02:45:02;;;;;;;26.90;13.30;;;;;;;;;;4974300;28;20046;-52
2022/05/20 02:47:32;;;;;;;12.15;5.20;;;;;;;;;;4974214;28;20050;-54
2022/05/20 02:50:03;;;;;;;7.03;4.57;;;;;;;;;;4956578;28;20417;-60
2022/05/20 02:52:31;;;;;;;5.22;3.45;;;;;;;;;;4973881;28;20054;-54
2022/05/20 02:54:59;;;;;;;12.60;3.63;;;;;;;;;;4971799;28;20039;-51
2022/05/20 02:57:27;;;;;;;23.38;4.93;;;;;;;;;;4969768;28;20494;-59
2022/05/20 03:05:28;;;;;;;11.25;5.60;;;;;;;;;;4973685;28;20051;-51
2022/05/20 03:07:59;;;;;;;5.38;3.97;;;;;;;;;;4973692;28;20054;-50
2022/05/20 03:10:27;;;;;;;14.07;5.50;;;;;;;;;;4973525;28;20097;-51
2022/05/20 03:13:03;;;;;;;5.90;4.00;;;;;;;;;;4973636;28;20043;-55
2022/05/20 03:15:31;;;;;;;5.32;3.45;;;;;;;;;;4973306;28;20453;-52
2022/05/20 03:17:59;;;;;;;5.07;3.47;;;;;;;;;;4973377;28;20039;-53
2022/05/20 03:20:26;;;;;;;6.38;4.00;;;;;;;;;;4973173;28;20055;-61
2022/05/20 03:22:53;;;;;;;43.95;26.38;;;;;;;;;;4973331;28;20039;-56
2022/05/20 03:25:21;;;;;;;24.10;11.70;;;;;;;;;;4972765;28;20418;-48
2022/05/20 03:27:49;;;;;;;22.35;11.13;;;;;;;;;;4975754;28;20046;-58
2022/05/20 03:30:17;;;;;;;17.23;8.05;;;;;;;;;;4992648;28;20042;-56
2022/05/20 03:32:44;;;;;;;12.80;6.75;;;;;;;;;;4992817;28;20042;-55
2022/05/20 03:35:13;;;;;;;12.90;6.45;;;;;;;;;;4978835;28;20051;-54
2022/05/20 03:37:40;;;;;;;10.55;5.43;;;;;;;;;;4973104;28;20054;-58
2022/05/20 03:40:08;;;;;;;7.88;5.40;;;;;;;;;;4972012;28;20034;-56
2022/05/20 03:42:35;;;;;;;7.45;4.95;;;;;;;;;;4972968;28;20043;-58
2022/05/20 03:45:04;;;;;;;8.32;4.65;;;;;;;;;;4972890;28;20061;-55
2022/05/20 03:47:31;;;;;;;5.80;3.90;;;;;;;;;;4973160;28;20031;-57
2022/05/20 03:50:00;;;;;;;6.20;4.70;;;;;;;;;;4972992;28;20215;-57
2022/05/20 03:52:27;;;;;;;8.15;4.80;;;;;;;;;;4973145;28;20155;-54
2022/05/20 03:54:55;;;;;;;15.50;5.68;;;;;;;;;;4972560;28;20402;-51
2022/05/20 03:57:22;;;;;;;18.67;6.03;;;;;;;;;;4972760;28;20070;-56
2022/05/20 03:59:49;;;;;;;8.25;4.97;;;;;;;;;;4972905;28;20498;-54
2022/05/20 04:02:17;;;;;;;14.18;6.90;;;;;;;;;;4972735;28;20068;-56
2022/05/20 04:04:52;;;;;;;4.63;3.25;;;;;;;;;;4972744;28;20045;-54
2022/05/20 04:07:25;;;;;;;7.45;3.28;;;;;;;;;;4972375;28;20121;-61
2022/05/20 04:09:53;;;;;;;7.88;4.07;;;;;;;;;;4972854;28;20051;-51
2022/05/20 04:12:43;;;;;;;4.28;2.95;;;;;;;;;;4972610;28;20039;-57
2022/05/20 04:15:13;;;;;;;4.07;2.50;;;;;;;;;;4970922;28;20581;-56
2022/05/20 04:17:41;;;;;;;3.22;2.45;;;;;;;;;;4972545;28;20047;-59
2022/05/20 04:20:08;;;;;;;3.92;2.40;;;;;;;;;;4972713;28;20042;-56
2022/05/20 04:22:39;;;;;;;4.13;2.42;;;;;;;;;;4972840;28;20125;-63
2022/05/20 04:25:06;;;;;;;3.45;2.25;;;;;;;;;;4972905;28;20042;-56
2022/05/20 04:27:34;;;;;;;3.05;1.90;;;;;;;;;;4973901;28;20065;-53
2022/05/20 04:30:03;;;;;;;3.80;2.35;;;;;;;;;;4991946;28;20117;-53
2022/05/20 04:32:30;;;;;;;3.20;2.13;;;;;;;;;;4991759;28;20042;-49
2022/05/20 04:34:57;;;;;;;2.50;1.88;;;;;;;;;;4992183;28;20054;-60
2022/05/20 04:37:27;;;;;;;26.45;11.15;;;;;;;;;;4991961;28;20042;-54
2022/05/20 04:39:55;;;;;;;14.35;6.72;;;;;;;;;;4977826;28;20421;-52
2022/05/20 04:47:55;;;;;;;2.67;1.65;;;;;;;;;;4995644;28;20043;-54
2022/05/20 04:50:22;;;;;;;2.28;1.50;;;;;;;;;;4994794;28;20042;-57
2022/05/20 04:52:50;;;;;;;3.55;1.95;;;;;;;;;;4976261;28;20453;-62
2022/05/20 04:55:17;;;;;;;2.92;1.90;;;;;;;;;;4976151;28;20043;-59
2022/05/20 04:57:51;;;;;;;8.65;4.78;;;;;;;;;;4974196;28;20039;-58
2022/05/20 05:00:20;;;;;;;3.20;1.73;;;;;;;;;;4975573;28;20111;-54
2022/05/20 05:02:48;;;;;;;2.80;1.67;;;;;;;;;;4975824;28;20050;-60
2022/05/20 05:05:20;;;;;;;3.78;1.75;;;;;;;;;;4958852;28;20062;-62
2022/05/20 05:07:49;;;;;;;2.53;1.58;;;;;;;;;;4975917;28;20050;-62
2022/05/20 05:10:25;;;;;;;3.20;1.40;;;;;;;;;;4975867;28;20077;-59
2022/05/20 05:12:53;;;;;;;3.15;1.80;;;;;;;;;;4976010;28;20046;-59
2022/05/20 05:15:20;;;;;;;2.10;1.35;;;;;;;;;;4975732;28;20069;-56
2022/05/20 05:20:34;;;;;;;27.40;13.40;;;;;;;;;;4975494;28;20078;-63
2022/05/20 05:23:02;;;;;;;4.50;2.33;;;;;;;;;;4975516;28;20429;-56
2022/05/20 05:25:32;;;;;;;2.65;1.40;;;;;;;;;;4975596;28;20453;-61
2022/05/20 05:28:00;;;;;;;6.18;1.30;;;;;;;;;;4980244;28;20046;-54
2022/05/20 05:30:28;;;;;;;3.40;1.17;;;;;;;;;;4994937;28;20073;-60
2022/05/20 05:32:56;;;;;;;1.70;1.23;;;;;;;;;;4995070;28;20070;-50
2022/05/20 05:35:26;;;;;;;2.13;1.25;;;;;;;;;;4995053;28;20050;-50
2022/05/20 05:37:53;;;;;;;5.45;1.33;;;;;;;;;;4995005;28;20046;-61
2022/05/20 05:40:23;;;;;;;8.73;4.47;;;;;;;;;;4994743;28;20405;-55
2022/05/20 05:42:52;;;;;;;4.32;2.22;;;;;;;;;;4994957;28;20133;-60
2022/05/20 05:45:21;;;;;;;2.03;1.00;;;;;;;;;;4994652;28;20093;-56
2022/05/20 05:47:55;;;;;;;1.67;0.98;;;;;;;;;;4994762;28;20046;-58
2022/05/20 05:50:23;;;;;;;0.90;0.80;;;;;;;;;;4993765;28;20046;-58
2022/05/20 05:52:55;;;;;;;1.27;0.98;;;;;;;;;;4994330;28;20144;-60
2022/05/20 05:55:23;;;;;;;2.53;1.20;;;;;;;;;;4994647;28;20097;-50
2022/05/20 05:57:50;;;;;;;2.92;1.00;;;;;;;;;;4994564;28;20053;-49
2022/05/20 06:00:18;;;;;;;2.40;1.52;;;;;;;;;;4994453;28;20034;-49
2022/05/20 06:02:46;;;;;;;1.65;1.20;;;;;;;;;;4994545;28;20042;-54
2022/05/20 06:05:14;;;;;;;2.55;1.13;;;;;;;;;;4994208;28;20034;-54
2022/05/20 06:07:41;;;;;;;7.28;4.05;;;;;;;;;;4994478;28;20050;-57
2022/05/20 06:10:09;;;;;;;9.85;5.32;;;;;;;;;;4994311;28;20370;-57
2022/05/20 06:12:36;;;;;;;2.10;1.30;;;;;;;;;;4994174;28;20064;-57
2022/05/20 06:15:06;;;;;;;2.05;1.15;;;;;;;;;;4993715;28;20045;-51
2022/05/20 06:17:33;;;;;;;1.30;1.00;;;;;;;;;;4991808;28;20081;-58
2022/05/20 06:20:02;;;;;;;1.67;1.08;;;;;;;;;;4992928;28;20049;-57
2022/05/20 06:22:29;;;;;;;2.88;1.17;;;;;;;;;;4993304;28;20478;-59
2022/05/20 06:24:56;;;;;;;2.72;1.10;;;;;;;;;;4993317;28;20042;-58
2022/05/20 06:27:24;;;;;;;1.65;0.98;;;;;;;;;;4993262;28;20453;-54
2022/05/20 06:29:51;;;;;;;2.35;1.13;;;;;;;;;;4973588;28;20405;-50
2022/05/20 06:32:19;;;;;;;2.40;1.23;;;;;;;;;;4974104;28;20046;-53
2022/05/20 06:40:20;;;;;;;2.28;1.13;;;;;;;;;;4974050;28;20078;-58
2022/05/20 06:42:48;;;;;;;2.53;1.55;;;;;;;;;;4974120;28;20038;-59
2022/05/20 06:45:16;;;;;;;2.00;1.30;;;;;;;;;;4974110;28;20046;-62
2022/05/20 06:47:43;;;;;;;2.70;1.27;;;;;;;;;;4974265;28;20046;-62
2022/05/20 06:50:12;;;;;;;1.30;1.10;;;;;;;;;;4974102;28;20406;-61
2022/05/20 06:52:39;;;;;;;2.38;1.00;;;;;;;;;;4973975;28;20459;-62
2022/05/20 06:55:08;;;;;;;1.80;1.00;;;;;;;;;;4973983;28;20051;-63
2022/05/20 06:57:39;;;;;;;1.95;1.08;;;;;;;;;;4973691;28;20046;-56
2022/05/20 07:00:10;;;;;;;1.92;0.90;;;;;;;;;;4973987;28;20057;-62
2022/05/20 07:02:39;;;;;;;2.03;1.10;;;;;;;;;;4973641;28;20035;-60
2022/05/20 07:05:09;;;;;;;1.77;1.25;;;;;;;;;;4973962;28;20046;-59
2022/05/20 07:07:37;;;;;;;2.60;1.02;;;;;;;;;;4973239;28;20150;-56
2022/05/20 07:10:07;;;;;;;2.75;0.95;;;;;;;;;;4956761;28;20400;-59
2022/05/20 07:12:35;;;;;;;4.88;1.20;;;;;;;;;;4973714;28;20051;-53
2022/05/20 07:15:03;;;;;;;2.47;1.02;;;;;;;;;;4973572;28;20451;-61
2022/05/20 07:17:35;;;;;;;2.65;1.20;;;;;;;;;;4973488;28;20101;-61
2022/05/20 07:20:04;;;;;;;2.42;1.10;;;;;;;;;;4973295;28;20058;-55
2022/05/20 07:22:32;;;;;;;1.83;1.10;;;;;;;;;;4973543;28;20451;-53
2022/05/20 07:24:59;;;;;;;3.47;1.30;;;;;;;;;;4973578;28;20520;-50
2022/05/20 07:27:29;;;;;;;2.90;1.10;;;;;;;;;;4973797;28;20046;-51
2022/05/20 07:29:57;;;;;;;3.60;1.00;;;;;;;;;;4993016;28;20052;-51
2022/05/20 07:32:24;;;;;;;2.47;0.90;;;;;;;;;;4992556;28;20050;-51
2022/05/20 07:34:51;;;;;;;2.67;1.15;;;;;;;;;;4992547;28;20607;-50
2022/05/20 07:37:19;;;;;;;2.90;0.95;;;;;;;;;;4992688;28;20042;-48
2022/05/20 07:39:46;;;;;;;2.55;1.00;;;;;;;;;;4992571;28;20034;-51
2022/05/20 07:42:14;;;;;;;1.40;0.85;;;;;;;;;;4992591;28;20053;-55
2022/05/20 07:44:41;;;;;;;1.77;0.70;;;;;;;;;;4975352;28;20117;-56
2022/05/20 07:47:09;;;;;;;1.45;0.90;;;;;;;;;;4992558;28;20045;-56
2022/05/20 07:49:36;;;;;;;1.50;1.00;;;;;;;;;;4992470;28;20405;-56
2022/05/20 07:52:07;;;;;;;2.65;1.10;;;;;;;;;;4992327;28;20053;-64
2022/05/20 07:54:38;;;;;;;2.13;1.02;;;;;;;;;;4992347;28;20124;-60
2022/05/20 07:57:12;;;;;;;2.17;0.93;;;;;;;;;;4992262;28;20042;-63
2022/05/20 07:59:45;;;;;;;2.83;1.00;;;;;;;;;;4992196;28;20134;-61
2022/05/20 08:02:15;;;;;;;2.85;1.23;;;;;;;;;;4992095;28;20043;-59
2022/05/20 08:04:56;;;;;;;1.83;0.70;;;;;;;;;;4992243;28;20062;-61
2022/05/20 08:07:28;;;;;;;4.00;1.15;;;;;;;;;;4992113;28;20457;-54
2022/05/20 08:09:57;;;;;;;1.60;1.00;;;;;;;;;;4992099;28;20042;-55
2022/05/20 08:12:25;;;;;;;1.67;1.00;;;;;;;;;;4991847;28;20050;-55
2022/05/20 08:14:53;;;;;;;1.60;0.90;;;;;;;;;;4991753;28;20041;-58
2022/05/20 08:17:24;;;;;;;1.48;0.90;;;;;;;;;;4990682;28;20526;-51
2022/05/20 08:19:53;;;;;;;1.70;1.00;;;;;;;;;;4991838;28;20108;-56
2022/05/20 08:22:24;;;;;;;1.90;0.88;;;;;;;;;;4992007;28;20046;-59
2022/05/20 08:24:57;;;;;;;7.35;1.05;;;;;;;;;;4991704;28;20532;-58
2022/05/20 08:27:27;;;;;;;2.53;1.00;;;;;;;;;;4991866;28;20911;-60
2022/05/20 08:29:55;;;;;;;1.25;0.85;;;;;;;;;;4972505;28;20084;-53
2022/05/20 08:32:23;;;;;;;1.55;0.90;;;;;;;;;;4972611;28;20042;-48
2022/05/20 08:34:51;;;;;;;2.35;1.15;;;;;;;;;;4972307;28;20073;-50
2022/05/20 08:37:18;;;;;;;2.20;0.95;;;;;;;;;;4972245;28;20039;-53
2022/05/20 08:39:46;;;;;;;1.73;0.90;;;;;;;;;;4972192;28;20564;-56
2022/05/20 08:42:20;;;;;;;2.35;1.02;;;;;;;;;;4972296;28;20465;-60
2022/05/20 08:44:48;;;;;;;1.67;0.90;;;;;;;;;;4972371;28;20074;-64
2022/05/20 08:47:22;;;;;;;4.13;1.10;;;;;;;;;;4972150;28;20055;-51
2022/05/20 08:49:53;;;;;;;1.83;1.00;;;;;;;;;;4972174;28;20053;-51
2022/05/20 08:52:22;;;;;;;3.10;0.82;;;;;;;;;;4972071;28;20053;-48
2022/05/20 08:54:50;;;;;;;2.90;1.10;;;;;;;;;;4972235;28;20109;-57
2022/05/20 08:57:38;;;;;;;1.58;0.80;;;;;;;;;;4972385;28;20031;-51
2022/05/20 09:00:09;;;;;;;1.50;0.85;;;;;;;;;;4972406;28;20047;-51
2022/05/20 09:02:37;;;;;;;1.92;0.80;;;;;;;;;;4972354;28;20507;-54
2022/05/20 09:05:13;;;;;;;1.60;0.80;;;;;;;;;;4972465;28;20130;-51
2022/05/20 09:08:05;;;;;;;3.13;1.17;;;;;;;;;;4972530;28;20502;-51
2022/05/20 09:10:43;;;;;;;2.58;0.93;;;;;;;;;;4972183;28;20102;-52
2022/05/20 09:13:13;;;;;;;2.08;0.90;;;;;;;;;;4972474;28;20557;-54
2022/05/20 09:15:44;;;;;;;1.20;0.90;;;;;;;;;;4972389;28;20098;-56
2022/05/20 09:18:20;;;;;;;2.45;1.10;;;;;;;;;;4971978;28;20142;-60
2022/05/20 09:20:50;;;;;;;3.65;0.90;;;;;;;;;;4971902;28;20417;-56
2022/05/20 09:23:22;;;;;;;3.45;0.80;;;;;;;;;;4972072;28;20038;-54
2022/05/20 09:26:02;;;;;;;2.73;0.90;;;;;;;;;;4973215;28;20584;-56
2022/05/20 09:28:33;;;;;;;2.00;0.98;;;;;;;;;;4984203;28;20298;-48
2022/05/20 09:31:21;;;;;;;1.80;0.93;;;;;;;;;;4994969;28;20105;-52
2022/05/20 09:34:13;;;;;;;1.63;1.00;;;;;;;;;;4994901;28;20097;-48
2022/05/20 09:36:57;;;;;;;2.72;0.80;;;;;;;;;;4995172;28;20429;-57
2022/05/20 09:39:32;;;;;;;3.60;1.20;;;;;;;;;;4994742;28;20055;-51
2022/05/20 09:42:09;;;;;;;2.65;1.02;;;;;;;;;;4994775;28;20481;-57
2022/05/20 09:44:40;;;;;;;1.50;0.93;;;;;;;;;;4994740;28;20042;-51
2022/05/20 09:47:14;;;;;;;1.23;0.90;;;;;;;;;;4995011;28;20038;-55
2022/05/20 09:50:01;;;;;;;1.98;0.90;;;;;;;;;;4994609;28;20073;-56
2022/05/20 09:52:51;;;;;;;1.92;0.88;;;;;;;;;;4994280;28;20065;-62
2022/05/20 09:55:29;;;;;;;1.60;0.90;;;;;;;;;;4994451;28;20077;-49
2022/05/20 09:58:11;;;;;;;3.42;0.93;;;;;;;;;;4994391;28;20133;-52
2022/05/20 10:00:40;;;;;;;1.52;0.95;;;;;;;;;;4994165;28;20804;-56
2022/05/20 10:03:31;;;;;;;2.35;0.90;;;;;;;;;;4994662;28;20034;-54
2022/05/20 10:06:09;;;;;;;1.88;0.90;;;;;;;;;;4994322;28;20053;-57
2022/05/20 10:08:58;;;;;;;2.00;1.23;;;;;;;;;;4994553;28;20065;-51
2022/05/20 10:11:38;;;;;;;2.67;1.00;;;;;;;;;;4994407;28;20073;-52
2022/05/20 10:14:16;;;;;;;2.28;1.10;;;;;;;;;;4994450;28;20089;-56
2022/05/20 10:16:44;;;;;;;1.40;0.93;;;;;;;;;;4994228;28;20077;-51
2022/05/20 10:19:39;;;;;;;2.10;1.17;;;;;;;;;;4994028;28;20066;-51
2022/05/20 10:22:24;;;;;;;2.03;0.90;;;;;;;;;;4993919;28;20042;-48
2022/05/20 10:25:05;;;;;;;1.77;1.05;;;;;;;;;;4994081;28;20045;-48
2022/05/20 10:27:58;;;;;;;2.40;1.10;;;;;;;;;;4992818;28;20042;-49
2022/05/20 10:33:31;;;;;;;1.70;0.80;;;;;;;;;;4974544;28;20047;-51
2022/05/20 10:36:08;;;;;;;;;;;;;;;;;;4974548;28;20046;-53
2022/05/20 10:38:53;;;;;;;2.95;1.58;;;;;;;;;;4974605;28;19984;-52
2022/05/20 10:41:48;;;;;;;2.30;1.10;;;;;;;;;;4974341;28;20047;-53
2022/05/20 10:50:32;;;;;;;3.45;1.00;;;;;;;;;;4973952;28;20078;-51
2022/05/20 10:53:15;;;;;;;1.65;1.10;;;;;;;;;;4974003;28;20111;-52
2022/05/20 10:55:58;;;;;;;2.03;1.00;;;;;;;;;;4974002;28;20047;-50
2022/05/20 10:58:54;;;;;;;2.05;1.08;;;;;;;;;;4973857;28;20418;-58
2022/05/20 11:01:59;;;;;;;2.97;1.10;;;;;;;;;;4973977;28;20050;-61
2022/05/20 11:04:45;;;;;;;2.28;1.00;;;;;;;;;;4973796;28;20577;-61
2022/05/20 11:07:44;;;;;;;1.70;1.00;;;;;;;;;;4973743;28;20042;-57
2022/05/20 11:10:44;;;;;;;1.80;1.10;;;;;;;;;;4969627;28;20067;-59
2022/05/20 11:13:17;;;;;;;2.05;0.80;;;;;;;;;;4962505;28;20051;-57
2022/05/20 11:16:09;;;;;;;2.30;0.80;;;;;;;;;;4973637;28;20093;-51
2022/05/20 11:18:52;;;;;;;2.50;1.00;;;;;;;;;;4973722;28;20043;-50
2022/05/20 11:21:35;;;;;;;4.13;0.87;;;;;;;;;;4973737;28;20035;-54
2022/05/20 11:24:29;;;;;;;1.55;0.98;;;;;;;;;;4973520;28;20113;-50
2022/05/20 11:26:56;;;;;;;;;;;;;;;;;;4956818;28;20069;-52
2022/05/20 11:29:37;;;;;;;2.58;1.00;;;;;;;;;;4972353;28;20324;-53
2022/05/20 11:32:07;;;;;;;3.50;1.10;;;;;;;;;;4992934;28;20042;-56
2022/05/20 11:34:56;;;;;;;1.40;0.90;;;;;;;;;;4992859;28;20046;-56
2022/05/20 11:37:45;;;;;;;2.90;1.15;;;;;;;;;;4992685;28;20126;-57
2022/05/20 11:40:40;;;;;;;2.75;0.77;;;;;;;;;;4992442;28;20589;-56
2022/05/20 11:43:39;;;;;;;1.58;1.10;;;;;;;;;;4992677;28;20137;-52
2022/05/20 11:46:41;;;;;;;1.48;0.80;;;;;;;;;;4978227;28;20094;-53
2022/05/20 11:49:32;;;;;;;1.17;0.77;;;;;;;;;;4953740;28;20051;-52
2022/05/20 11:52:17;;;;;;;1.83;1.05;;;;;;;;;;4973011;28;20418;-49
2022/05/20 11:55:00;;;;;;;2.95;1.08;;;;;;;;;;4973083;28;20050;-47
2022/05/20 11:57:38;;;;;;;1.40;1.00;;;;;;;;;;4972866;28;20580;-50
2022/05/20 12:00:13;;;;;;;3.13;1.20;;;;;;;;;;4973051;28;20062;-51
2022/05/20 12:02:51;;;;;;;1.55;0.85;;;;;;;;;;4972946;28;20049;-50
2022/05/20 12:05:24;;;;;;;2.10;1.10;;;;;;;;;;4972718;28;20118;-50
2022/05/20 12:07:51;;;;;;;1.88;1.00;;;;;;;;;;4972779;28;20442;-50
2022/05/20 12:10:31;;;;;;;3.13;0.90;;;;;;;;;;4972045;28;20461;-51
2022/05/20 12:13:14;;;;;;;1.45;0.90;;;;;;;;;;4972877;28;20279;-50
2022/05/20 12:15:46;;;;;;;1.52;0.82;;;;;;;;;;4972868;28;20089;-52
2022/05/20 12:24:29;;;;;;;1.83;0.85;;;;;;;;;;4972268;28;20498;-56
2022/05/20 12:26:57;;;;;;;2.28;0.88;;;;;;;;;;4972607;28;20410;-54
2022/05/20 12:29:47;;;;;;;1.98;1.08;;;;;;;;;;4988458;28;20097;-52
2022/05/20 12:32:35;;;;;;;1.42;0.88;;;;;;;;;;4974688;28;20038;-51
2022/05/20 12:35:31;;;;;;;1.55;0.90;;;;;;;;;;4991945;28;20050;-49
2022/05/20 12:38:18;;;;;;;3.08;1.27;;;;;;;;;;4991984;28;20074;-51
2022/05/20 12:40:50;;;;;;;1.77;1.00;;;;;;;;;;4991926;28;20441;-53
2022/05/20 12:43:42;;;;;;;11.70;9.13;;;;;;;;;;4991411;28;20409;-54
2022/05/20 12:46:18;;;;;;;16.35;10.77;;;;;;;;;;4974699;28;20121;-59
2022/05/20 12:48:45;;;;;;;3.88;2.13;;;;;;;;;;4991646;28;20124;-52
2022/05/20 12:51:13;;;;;;;2.10;1.02;;;;;;;;;;4991802;28;20049;-52
2022/05/20 12:53:40;;;;;;;3.50;0.90;;;;;;;;;;4991589;28;20038;-50
2022/05/20 12:56:24;;;;;;;4.65;1.42;;;;;;;;;;4992068;28;20089;-52
2022/05/20 12:58:52;;;;;;;4.47;0.93;;;;;;;;;;4991805;28;20097;-53
2022/05/20 13:01:20;;;;;;;2.05;1.10;;;;;;;;;;4995201;28;20110;-54
2022/05/20 13:03:51;;;;;;;1.92;1.00;;;;;;;;;;4995634;28;20046;-50
2022/05/20 13:06:27;;;;;;;1.65;0.90;;;;;;;;;;4978251;28;20042;-54
2022/05/20 13:09:03;;;;;;;2.85;0.88;;;;;;;;;;4995548;28;20544;-50
2022/05/20 13:11:46;;;;;;;3.85;1.13;;;;;;;;;;4994769;28;20575;-51
2022/05/20 13:14:22;;;;;;;1.67;1.00;;;;;;;;;;4995195;28;20133;-53
2022/05/20 13:16:58;;;;;;;1.60;0.85;;;;;;;;;;4995289;28;20038;-53
2022/05/20 13:19:41;;;;;;;1.38;0.85;;;;;;;;;;4994482;28;20115;-51
2022/05/20 13:22:11;;;;;;;8.80;5.80;;;;;;;;;;4995394;28;20501;-57
2022/05/20 13:24:39;;;;;;;7.05;3.80;;;;;;;;;;4995431;28;20050;-50
2022/05/20 13:27:14;;;;;;;13.00;8.02;;;;;;;;;;4993728;28;20054;-56
2022/05/20 13:29:44;;;;;;;3.28;1.75;;;;;;;;;;4976716;28;20082;-59
2022/05/20 13:32:12;;;;;;;1.63;0.90;;;;;;;;;;4975337;28;20089;-49
2022/05/20 13:34:44;;;;;;;3.13;1.00;;;;;;;;;;4975614;28;20506;-56
2022/05/20 13:37:15;;;;;;;2.72;0.98;;;;;;;;;;4975470;28;20039;-50
2022/05/20 13:39:44;;;;;;;1.88;1.42;;;;;;;;;;4975257;28;20074;-52
2022/05/20 13:42:16;;;;;;;1.48;0.90;;;;;;;;;;4975329;28;20047;-51
2022/05/20 13:44:44;;;;;;;1.23;0.90;;;;;;;;;;4975374;28;20038;-50
2022/05/20 13:50:04;;;;;;;2.47;1.00;;;;;;;;;;4975224;28;20046;-53
2022/05/20 13:52:31;;;;;;;0.88;0.70;;;;;;;;;;4975304;28;20054;-54
2022/05/20 13:55:04;;;;;;;1.52;0.90;;;;;;;;;;4975066;28;20051;-54
2022/05/20 13:57:34;;;;;;;2.75;1.00;;;;;;;;;;4975239;28;20071;-58
2022/05/20 14:00:42;;;;;;;1.83;0.90;;;;;;;;;;4974819;28;20078;-58
2022/05/20 14:03:24;;;;;;;0.85;0.68;;;;;;;;;;4956581;28;20051;-55
2022/05/20 14:06:06;;;;;;;1.35;0.80;;;;;;;;;;4974995;28;20511;-57
2022/05/20 14:08:43;;;;;;;2.25;0.95;;;;;;;;;;4957826;28;20043;-49
2022/05/20 14:11:15;;;;;;;2.67;1.23;;;;;;;;;;4974066;28;20045;-54
2022/05/20 14:13:44;;;;;;;4.18;0.90;;;;;;;;;;4974871;28;20498;-57
2022/05/20 14:16:25;;;;;;;1.30;0.85;;;;;;;;;;4974658;28;20414;-51
2022/05/20 14:18:57;;;;;;;1.90;0.90;;;;;;;;;;4957460;28;20118;-51
2022/05/20 14:21:35;;;;;;;1.85;0.90;;;;;;;;;;4974602;28;20058;-57
2022/05/20 14:24:08;;;;;;;36.45;13.73;;;;;;;;;;4974814;28;20053;-57
2022/05/20 14:26:49;;;;;;;3.45;1.17;;;;;;;;;;4974749;28;20039;-53
2022/05/20 14:29:38;;;;;;;1.63;0.70;;;;;;;;;;4989385;28;20042;-53
2022/05/20 14:32:24;;;;;;;1.58;0.70;;;;;;;;;;4994276;28;20066;-57
2022/05/20 14:34:56;;;;;;;4.13;0.82;;;;;;;;;;4993838;28;20039;-57
2022/05/20 14:37:26;;;;;;;1.92;1.25;;;;;;;;;;4993867;28;20053;-50
2022/05/20 14:39:56;;;;;;;1.98;1.33;;;;;;;;;;4993629;28;20038;-56
2022/05/20 14:42:35;;;;;;;1.10;0.60;;;;;;;;;;4993530;28;20046;-55
2022/05/20 14:45:16;;;;;;;4.95;0.88;;;;;;;;;;4994008;28;20042;-57
2022/05/20 14:47:50;;;;;;;3.20;0.90;;;;;;;;;;4993566;28;20068;-54
2022/05/20 14:50:24;;;;;;;8.73;3.85;;;;;;;;;;4993479;28;20046;-56
2022/05/20 14:53:10;;;;;;;8.82;7.75;;;;;;;;;;4993581;28;20121;-56
2022/05/20 14:55:51;;;;;;;3.88;2.70;;;;;;;;;;4993717;28;20400;-55
2022/05/20 14:58:21;;;;;;;3.22;0.80;;;;;;;;;;4993457;28;20050;-55
2022/05/20 15:00:57;;;;;;;34.17;19.00;;;;;;;;;;4993050;28;20400;-56
2022/05/20 15:03:27;;;;;;;7.45;3.50;;;;;;;;;;4993371;28;20035;-56
2022/05/20 15:05:55;;;;;;;1.13;0.60;;;;;;;;;;4993280;28;20042;-55
2022/05/20 15:08:26;;;;;;;1.63;0.80;;;;;;;;;;4993097;28;20559;-54
2022/05/20 15:11:05;;;;;;;1.33;0.73;;;;;;;;;;4993376;28;20109;-55
2022/05/20 15:13:32;;;;;;;2.58;0.70;;;;;;;;;;4993101;28;20039;-53
2022/05/20 15:16:00;;;;;;;0.60;0.40;;;;;;;;;;4993188;28;20050;-52
2022/05/20 15:18:27;;;;;;;2.17;0.80;;;;;;;;;;4992923;28;20400;-54
2022/05/20 15:20:58;;;;;;;1.40;0.88;;;;;;;;;;4992985;28;20078;-52
2022/05/20 15:23:34;;;;;;;2.25;0.50;;;;;;;;;;4992903;28;20458;-54
2022/05/20 15:26:03;;;;;;;0.80;0.55;;;;;;;;;;4992856;28;20208;-55
2022/05/20 15:28:49;;;;;;;1.73;0.90;;;;;;;;;;4983921;28;20074;-57
2022/05/20 15:37:12;;;;;;;4.00;2.15;;;;;;;;;;4973209;28;20049;-57
2022/05/20 15:39:42;;;;;;;1.15;0.70;;;;;;;;;;4973245;28;20130;-58
2022/05/20 15:42:14;;;;;;;1.38;0.70;;;;;;;;;;4973254;28;20506;-53
2022/05/20 15:44:42;;;;;;;1.67;0.73;;;;;;;;;;4973218;28;20046;-56
2022/05/20 15:47:11;;;;;;;1.13;0.73;;;;;;;;;;4973171;28;20043;-52
2022/05/20 15:49:39;;;;;;;1.88;0.60;;;;;;;;;;4973326;28;20042;-56
2022/05/20 15:52:08;;;;;;;1.38;0.70;;;;;;;;;;4972980;28;20126;-54
2022/05/20 15:54:45;;;;;;;2.05;0.90;;;;;;;;;;4972846;28;20042;-56
2022/05/20 15:57:17;;;;;;;1.30;0.70;;;;;;;;;;4973007;28;20052;-54
2022/05/20 15:59:47;;;;;;;1.38;0.73;;;;;;;;;;4972889;28;20486;-59
2022/05/20 16:02:18;;;;;;;1.95;1.13;;;;;;;;;;4972688;28;20502;-54
2022/05/20 16:04:47;;;;;;;1.08;0.57;;;;;;;;;;4973035;28;20097;-55